Country
Station

 

Weather  for  Aeroporto Marília (Marília/SP)  -  Brazil    Brazil

  
27 °C (81 °F)
    
 
 

Current METAR for Aeroporto Marília (Marília/SP) is :

SBML 211900Z 04007KT 9999 SCT045 SCT080 27/23 Q1012

 

This is a report for Aeroporto Marília (Marília/SP) - Brazil.
 
The report was made 54 hours and 10 minutes ago, at 19:00 UTC .
The wind was blowing at a speed of 3.6 meters per second (8.1 miles per hour) from northeast (040°).
 
The temperature was 27 °C (81 °F), with a dew-point at 23 °C (73 °F).
The temperature felt like 30 °C (86 °F).
 
The atmospheric pressure was 1012 hPa (29.88 inHg).
The relative humidity was 78.8%.
 
There were scattered clouds at a height of 1372 meters (4500 feet) and scattered clouds at a height of 2438 meters (8000 feet).
 
The overall visibility was greater than 10 kilometers (6.2 miles).
 

 
 
 
 

Country :   A   B   C   D   E   F   G   H   I   J   K   L   M   N   O   P   Q   R   S   T   U   V   W   Y   Z

 

Site Info  |  Disclaimer  |  Credits  |  Privacy
Contact us  |  Add to favorites
© 2013-2020 METARs - All rights reserved